JTC554 KMIA-KOPF
Flight info
| Callsign | JTC554 |
|---|---|
| Flight time | 0h -4m |
| Altitude | 2000 |
| Route | VFR |
| Aircraft | C750/M-VGDW/C |
Departure
| Time | 2026-04-23 17:31 |
|---|---|
| Airport | Miami International Airport (KMIA) |
Arrival
| Time | 2026-04-23 17:27 |
|---|---|
| Airport | Miami-Opa Locka Executive Airport (KOPF) |
| Time | Latitude | Longitude | Altitude | Speed | Heading |
|---|---|---|---|---|---|
| 2026-04-23 17:27 | 25.80634 | -80.29009 | 16 ft | 0 kts | 114° |
| 2026-04-23 17:28 | 25.80633 | -80.29007 | 16 ft | 1 kts | 114° |
| 2026-04-23 17:28 | 25.80627 | -80.28993 | 16 ft | 3 kts | 114° |
| 2026-04-23 17:29 | 25.80618 | -80.28967 | 15 ft | 0 kts | 103° |
| 2026-04-23 17:29 | 25.80622 | -80.28981 | 15 ft | 6 kts | 121° |
| 2026-04-23 17:29 | 25.80621 | -80.29084 | 15 ft | 14 kts | 283° |
| 2026-04-23 17:30 | 25.80596 | -80.29133 | 15 ft | 12 kts | 198° |
| 2026-04-23 17:30 | 25.80414 | -80.29150 | 18 ft | 16 kts | 173° |
| 2026-04-23 17:30 | 25.80345 | -80.29029 | 18 ft | 34 kts | 99° |
| 2026-04-23 17:31 | 25.80370 | -80.28331 | 20 ft | 138 kts | 87° |
| 2026-04-23 17:31 | 25.80668 | -80.27263 | 564 ft | 162 kts | 53° |
| 2026-04-23 17:31 | 25.81817 | -80.26741 | 768 ft | 204 kts | 4° |
| 2026-04-23 17:31 | 25.83139 | -80.27380 | 905 ft | 204 kts | 323° |
| 2026-04-23 17:32 | 25.84096 | -80.28482 | 980 ft | 196 kts | 314° |
| 2026-04-23 17:32 | 25.85048 | -80.29600 | 887 ft | 202 kts | 317° |
| 2026-04-23 17:32 | 25.86060 | -80.30650 | 921 ft | 198 kts | 324° |
| 2026-04-23 17:32 | 25.86813 | -80.31208 | 864 ft | 197 kts | 336° |
| 2026-04-23 17:33 | 25.88109 | -80.31626 | 745 ft | 189 kts | 357° |
| 2026-04-23 17:33 | 25.89218 | -80.31434 | 676 ft | 144 kts | 33° |
| 2026-04-23 17:33 | 25.89792 | -80.30656 | 438 ft | 128 kts | 79° |
| 2026-04-23 17:33 | 25.89865 | -80.29393 | 175 ft | 120 kts | 87° |
| 2026-04-23 17:34 | 25.89894 | -80.28771 | 74 ft | 116 kts | 88° |
| 2026-04-23 17:34 | 25.89931 | -80.27965 | 12 ft | 79 kts | 86° |
| 2026-04-23 17:34 | 25.89953 | -80.27500 | 17 ft | 18 kts | 74° |
| 2026-04-23 17:35 | 25.90034 | -80.27469 | 18 ft | 12 kts | 358° |
| 2026-04-23 17:35 | 25.90259 | -80.27460 | 13 ft | 23 kts | 24° |
| 2026-04-23 17:35 | 25.90395 | -80.27470 | 14 ft | 23 kts | 311° |
| 2026-04-23 17:36 | 25.90488 | -80.27608 | 16 ft | 21 kts | 297° |
| 2026-04-23 17:36 | 25.90574 | -80.27690 | 17 ft | 16 kts | 34° |
| 2026-04-23 17:36 | 25.90665 | -80.27648 | 17 ft | 12 kts | 325° |
| 2026-04-23 17:36 | 25.90675 | -80.27663 | 17 ft | 0 kts | 300° |